sensor_id;sensor_type;location;lat;lon;timestamp;P1;durP1;ratioP1;P2;durP2;ratioP2
66487;SDS011;53304;54.550;18.526;2023-06-04T00:00:58;2.92;;;1.50;;
66487;SDS011;53304;54.550;18.526;2023-06-04T00:03:26;3.78;;;1.80;;
66487;SDS011;53304;54.550;18.526;2023-06-04T00:05:52;3.78;;;1.75;;
66487;SDS011;53304;54.550;18.526;2023-06-04T00:08:19;2.88;;;1.52;;
66487;SDS011;53304;54.550;18.526;2023-06-04T00:10:47;4.38;;;1.58;;
66487;SDS011;53304;54.550;18.526;2023-06-04T00:13:13;2.40;;;1.50;;
66487;SDS011;53304;54.550;18.526;2023-06-04T00:15:38;4.03;;;1.70;;
66487;SDS011;53304;54.550;18.526;2023-06-04T00:18:04;2.78;;;1.40;;
66487;SDS011;53304;54.550;18.526;2023-06-04T00:20:36;5.70;;;1.80;;
66487;SDS011;53304;54.550;18.526;2023-06-04T00:23:04;3.58;;;1.70;;
66487;SDS011;53304;54.550;18.526;2023-06-04T00:25:29;2.30;;;1.38;;
66487;SDS011;53304;54.550;18.526;2023-06-04T00:27:54;2.67;;;1.40;;
66487;SDS011;53304;54.550;18.526;2023-06-04T00:30:25;3.92;;;1.70;;
66487;SDS011;53304;54.550;18.526;2023-06-04T00:32:52;4.03;;;1.35;;
66487;SDS011;53304;54.550;18.526;2023-06-04T00:35:17;3.03;;;1.52;;
66487;SDS011;53304;54.550;18.526;2023-06-04T00:37:48;1.88;;;1.23;;
66487;SDS011;53304;54.550;18.526;2023-06-04T00:40:13;6.63;;;1.88;;
66487;SDS011;53304;54.550;18.526;2023-06-04T00:42:41;12.88;;;1.98;;
66487;SDS011;53304;54.550;18.526;2023-06-04T00:45:07;4.20;;;1.60;;
66487;SDS011;53304;54.550;18.526;2023-06-04T00:47:34;3.55;;;1.65;;
66487;SDS011;53304;54.550;18.526;2023-06-04T00:50:05;3.13;;;1.55;;
66487;SDS011;53304;54.550;18.526;2023-06-04T00:52:37;4.60;;;1.70;;
66487;SDS011;53304;54.550;18.526;2023-06-04T00:55:02;2.05;;;1.30;;
66487;SDS011;53304;54.550;18.526;2023-06-04T00:57:28;3.42;;;1.63;;
66487;SDS011;53304;54.550;18.526;2023-06-04T00:59:55;4.15;;;1.40;;
66487;SDS011;53304;54.550;18.526;2023-06-04T01:02:21;2.10;;;1.38;;
66487;SDS011;53304;54.550;18.526;2023-06-04T01:07:37;3.83;;;1.50;;
66487;SDS011;53304;54.550;18.526;2023-06-04T01:10:12;3.05;;;1.42;;
66487;SDS011;53304;54.550;18.526;2023-06-04T01:12:39;3.95;;;1.42;;
66487;SDS011;53304;54.550;18.526;2023-06-04T01:15:08;4.97;;;1.50;;
66487;SDS011;53304;54.550;18.526;2023-06-04T01:17:41;2.33;;;1.27;;
66487;SDS011;53304;54.550;18.526;2023-06-04T01:27:54;2.40;;;1.40;;
66487;SDS011;53304;54.550;18.526;2023-06-04T01:30:24;2.53;;;1.27;;
66487;SDS011;53304;54.550;18.526;2023-06-04T01:32:57;2.72;;;1.50;;
66487;SDS011;53304;54.550;18.526;2023-06-04T01:35:28;2.85;;;1.30;;
66487;SDS011;53304;54.550;18.526;2023-06-04T01:37:56;5.63;;;1.55;;
66487;SDS011;53304;54.550;18.526;2023-06-04T01:40:22;2.60;;;1.42;;
66487;SDS011;53304;54.550;18.526;2023-06-04T01:42:51;1.58;;;1.05;;
66487;SDS011;53304;54.550;18.526;2023-06-04T01:45:22;2.60;;;1.50;;
66487;SDS011;53304;54.550;18.526;2023-06-04T01:47:50;4.35;;;1.23;;
66487;SDS011;53304;54.550;18.526;2023-06-04T01:50:16;3.20;;;1.30;;
66487;SDS011;53304;54.550;18.526;2023-06-04T01:52:42;3.65;;;1.35;;
66487;SDS011;53304;54.550;18.526;2023-06-04T01:55:09;2.33;;;1.10;;
66487;SDS011;53304;54.550;18.526;2023-06-04T01:57:37;2.80;;;1.40;;
66487;SDS011;53304;54.550;18.526;2023-06-04T02:00:05;3.03;;;1.27;;
66487;SDS011;53304;54.550;18.526;2023-06-04T02:02:33;4.35;;;1.52;;
66487;SDS011;53304;54.550;18.526;2023-06-04T02:04:58;3.95;;;1.30;;
66487;SDS011;53304;54.550;18.526;2023-06-04T02:07:24;2.55;;;1.42;;
66487;SDS011;53304;54.550;18.526;2023-06-04T02:09:51;4.68;;;1.50;;
66487;SDS011;53304;54.550;18.526;2023-06-04T02:12:17;4.03;;;1.58;;
66487;SDS011;53304;54.550;18.526;2023-06-04T02:14:43;3.63;;;1.25;;
66487;SDS011;53304;54.550;18.526;2023-06-04T02:17:10;3.25;;;1.27;;
66487;SDS011;53304;54.550;18.526;2023-06-04T02:19:43;3.33;;;1.20;;
66487;SDS011;53304;54.550;18.526;2023-06-04T02:22:13;3.95;;;1.27;;
66487;SDS011;53304;54.550;18.526;2023-06-04T02:24:41;3.00;;;1.35;;
66487;SDS011;53304;54.550;18.526;2023-06-04T02:27:12;1.77;;;1.20;;
66487;SDS011;53304;54.550;18.526;2023-06-04T02:29:41;3.92;;;1.50;;
66487;SDS011;53304;54.550;18.526;2023-06-04T02:32:11;5.28;;;1.55;;
66487;SDS011;53304;54.550;18.526;2023-06-04T02:34:37;3.05;;;1.52;;
66487;SDS011;53304;54.550;18.526;2023-06-04T02:37:07;3.38;;;1.30;;
66487;SDS011;53304;54.550;18.526;2023-06-04T02:39:32;2.42;;;1.40;;
66487;SDS011;53304;54.550;18.526;2023-06-04T02:41:57;3.33;;;1.15;;
66487;SDS011;53304;54.550;18.526;2023-06-04T02:44:25;3.05;;;1.40;;
66487;SDS011;53304;54.550;18.526;2023-06-04T02:46:51;3.28;;;1.70;;
66487;SDS011;53304;54.550;18.526;2023-06-04T02:49:21;2.47;;;1.23;;
66487;SDS011;53304;54.550;18.526;2023-06-04T02:51:50;2.55;;;1.20;;
66487;SDS011;53304;54.550;18.526;2023-06-04T02:54:18;2.03;;;1.20;;
66487;SDS011;53304;54.550;18.526;2023-06-04T02:56:43;2.00;;;1.20;;
66487;SDS011;53304;54.550;18.526;2023-06-04T02:59:14;3.65;;;1.42;;
66487;SDS011;53304;54.550;18.526;2023-06-04T03:01:42;2.53;;;1.45;;
66487;SDS011;53304;54.550;18.526;2023-06-04T03:04:10;4.30;;;1.30;;
66487;SDS011;53304;54.550;18.526;2023-06-04T03:06:40;2.67;;;1.40;;
66487;SDS011;53304;54.550;18.526;2023-06-04T03:09:11;2.97;;;1.45;;
66487;SDS011;53304;54.550;18.526;2023-06-04T03:11:39;2.33;;;1.20;;
66487;SDS011;53304;54.550;18.526;2023-06-04T03:14:07;3.05;;;1.80;;
66487;SDS011;53304;54.550;18.526;2023-06-04T03:16:37;2.80;;;1.50;;
66487;SDS011;53304;54.550;18.526;2023-06-04T03:19:04;2.50;;;1.30;;
66487;SDS011;53304;54.550;18.526;2023-06-04T03:21:30;2.70;;;1.40;;
66487;SDS011;53304;54.550;18.526;2023-06-04T03:24:00;2.08;;;1.30;;
66487;SDS011;53304;54.550;18.526;2023-06-04T03:26:28;2.50;;;1.42;;
66487;SDS011;53304;54.550;18.526;2023-06-04T03:28:56;2.28;;;1.30;;
66487;SDS011;53304;54.550;18.526;2023-06-04T03:31:23;3.53;;;1.42;;
66487;SDS011;53304;54.550;18.526;2023-06-04T03:33:51;3.30;;;1.40;;
66487;SDS011;53304;54.550;18.526;2023-06-04T03:36:17;2.28;;;1.20;;
66487;SDS011;53304;54.550;18.526;2023-06-04T03:38:42;3.83;;;1.30;;
66487;SDS011;53304;54.550;18.526;2023-06-04T03:41:12;4.97;;;1.50;;
66487;SDS011;53304;54.550;18.526;2023-06-04T03:43:40;3.10;;;1.40;;
66487;SDS011;53304;54.550;18.526;2023-06-04T03:46:05;5.07;;;1.58;;
66487;SDS011;53304;54.550;18.526;2023-06-04T03:48:31;5.57;;;1.50;;
66487;SDS011;53304;54.550;18.526;2023-06-04T03:50:59;9.20;;;1.50;;
66487;SDS011;53304;54.550;18.526;2023-06-04T03:53:26;2.55;;;1.50;;
66487;SDS011;53304;54.550;18.526;2023-06-04T03:55:54;4.60;;;1.50;;
66487;SDS011;53304;54.550;18.526;2023-06-04T03:58:21;3.38;;;1.88;;
66487;SDS011;53304;54.550;18.526;2023-06-04T04:00:47;2.65;;;1.40;;
66487;SDS011;53304;54.550;18.526;2023-06-04T04:03:19;4.72;;;1.50;;
66487;SDS011;53304;54.550;18.526;2023-06-04T04:05:46;4.07;;;1.80;;
66487;SDS011;53304;54.550;18.526;2023-06-04T04:08:12;7.88;;;1.70;;
66487;SDS011;53304;54.550;18.526;2023-06-04T04:10:37;6.15;;;1.35;;
66487;SDS011;53304;54.550;18.526;2023-06-04T04:13:02;3.28;;;1.40;;
66487;SDS011;53304;54.550;18.526;2023-06-04T04:15:28;5.03;;;1.50;;
66487;SDS011;53304;54.550;18.526;2023-06-04T04:17:56;2.17;;;1.20;;
66487;SDS011;53304;54.550;18.526;2023-06-04T04:20:23;4.90;;;1.35;;
66487;SDS011;53304;54.550;18.526;2023-06-04T04:22:51;4.88;;;1.30;;
66487;SDS011;53304;54.550;18.526;2023-06-04T04:25:22;5.55;;;1.50;;
66487;SDS011;53304;54.550;18.526;2023-06-04T04:27:50;3.33;;;1.38;;
66487;SDS011;53304;54.550;18.526;2023-06-04T04:30:15;3.08;;;1.45;;
66487;SDS011;53304;54.550;18.526;2023-06-04T04:32:42;2.53;;;1.20;;
66487;SDS011;53304;54.550;18.526;2023-06-04T04:35:13;2.63;;;1.20;;
66487;SDS011;53304;54.550;18.526;2023-06-04T04:37:39;2.88;;;1.40;;
66487;SDS011;53304;54.550;18.526;2023-06-04T04:40:09;2.25;;;1.25;;
66487;SDS011;53304;54.550;18.526;2023-06-04T04:42:42;2.35;;;1.30;;
66487;SDS011;53304;54.550;18.526;2023-06-04T04:45:08;2.72;;;1.20;;
66487;SDS011;53304;54.550;18.526;2023-06-04T04:47:34;2.72;;;1.20;;
66487;SDS011;53304;54.550;18.526;2023-06-04T04:50:00;1.95;;;1.38;;
66487;SDS011;53304;54.550;18.526;2023-06-04T04:52:25;3.53;;;1.30;;
66487;SDS011;53304;54.550;18.526;2023-06-04T04:54:53;2.58;;;1.30;;
66487;SDS011;53304;54.550;18.526;2023-06-04T04:57:22;2.33;;;1.30;;
66487;SDS011;53304;54.550;18.526;2023-06-04T04:59:50;3.38;;;1.25;;
66487;SDS011;53304;54.550;18.526;2023-06-04T05:02:20;5.95;;;1.50;;
66487;SDS011;53304;54.550;18.526;2023-06-04T05:04:46;2.35;;;1.30;;
66487;SDS011;53304;54.550;18.526;2023-06-04T05:07:13;1.77;;;1.30;;
66487;SDS011;53304;54.550;18.526;2023-06-04T05:09:39;3.45;;;1.20;;
66487;SDS011;53304;54.550;18.526;2023-06-04T05:12:10;2.13;;;1.27;;
66487;SDS011;53304;54.550;18.526;2023-06-04T05:14:36;2.63;;;1.38;;
66487;SDS011;53304;54.550;18.526;2023-06-04T05:17:01;1.73;;;1.20;;
66487;SDS011;53304;54.550;18.526;2023-06-04T05:19:29;4.38;;;1.65;;
66487;SDS011;53304;54.550;18.526;2023-06-04T05:21:57;2.97;;;1.10;;
66487;SDS011;53304;54.550;18.526;2023-06-04T05:24:24;2.70;;;1.30;;
66487;SDS011;53304;54.550;18.526;2023-06-04T05:26:49;3.95;;;1.33;;
66487;SDS011;53304;54.550;18.526;2023-06-04T05:29:17;2.95;;;1.17;;
66487;SDS011;53304;54.550;18.526;2023-06-04T05:31:42;2.72;;;1.25;;
66487;SDS011;53304;54.550;18.526;2023-06-04T05:34:08;3.30;;;1.40;;
66487;SDS011;53304;54.550;18.526;2023-06-04T05:36:34;4.45;;;1.45;;
66487;SDS011;53304;54.550;18.526;2023-06-04T05:39:03;4.57;;;1.27;;
66487;SDS011;53304;54.550;18.526;2023-06-04T05:41:29;3.80;;;1.30;;
66487;SDS011;53304;54.550;18.526;2023-06-04T05:43:54;2.10;;;1.20;;
66487;SDS011;53304;54.550;18.526;2023-06-04T05:46:25;2.78;;;1.10;;
66487;SDS011;53304;54.550;18.526;2023-06-04T05:48:50;2.08;;;1.10;;
66487;SDS011;53304;54.550;18.526;2023-06-04T05:51:19;1.90;;;1.30;;
66487;SDS011;53304;54.550;18.526;2023-06-04T05:53:47;4.35;;;1.70;;
66487;SDS011;53304;54.550;18.526;2023-06-04T05:56:14;2.70;;;1.23;;
66487;SDS011;53304;54.550;18.526;2023-06-04T05:58:42;1.95;;;1.15;;
66487;SDS011;53304;54.550;18.526;2023-06-04T06:01:12;2.63;;;1.15;;
66487;SDS011;53304;54.550;18.526;2023-06-04T06:03:40;3.75;;;1.25;;
66487;SDS011;53304;54.550;18.526;2023-06-04T06:06:06;2.60;;;1.20;;
66487;SDS011;53304;54.550;18.526;2023-06-04T06:08:35;1.52;;;1.10;;
66487;SDS011;53304;54.550;18.526;2023-06-04T06:11:00;3.45;;;1.20;;
66487;SDS011;53304;54.550;18.526;2023-06-04T06:13:27;1.88;;;1.10;;
66487;SDS011;53304;54.550;18.526;2023-06-04T06:15:54;5.97;;;1.25;;
66487;SDS011;53304;54.550;18.526;2023-06-04T06:18:22;4.97;;;1.23;;
66487;SDS011;53304;54.550;18.526;2023-06-04T06:20:50;3.53;;;1.10;;
66487;SDS011;53304;54.550;18.526;2023-06-04T06:23:15;7.15;;;1.10;;
66487;SDS011;53304;54.550;18.526;2023-06-04T06:25:41;6.53;;;1.10;;
66487;SDS011;53304;54.550;18.526;2023-06-04T06:28:10;1.95;;;0.93;;
66487;SDS011;53304;54.550;18.526;2023-06-04T06:30:38;1.83;;;1.02;;
66487;SDS011;53304;54.550;18.526;2023-06-04T06:33:09;3.33;;;1.00;;
66487;SDS011;53304;54.550;18.526;2023-06-04T06:35:38;3.67;;;1.20;;
66487;SDS011;53304;54.550;18.526;2023-06-04T06:38:05;4.03;;;1.15;;
66487;SDS011;53304;54.550;18.526;2023-06-04T06:40:31;3.83;;;1.23;;
66487;SDS011;53304;54.550;18.526;2023-06-04T06:42:58;2.55;;;1.10;;
66487;SDS011;53304;54.550;18.526;2023-06-04T06:45:24;2.45;;;1.50;;
66487;SDS011;53304;54.550;18.526;2023-06-04T06:47:49;3.60;;;1.10;;
66487;SDS011;53304;54.550;18.526;2023-06-04T06:50:17;1.95;;;0.90;;
66487;SDS011;53304;54.550;18.526;2023-06-04T06:52:50;1.60;;;0.88;;
66487;SDS011;53304;54.550;18.526;2023-06-04T06:55:17;2.75;;;0.90;;
66487;SDS011;53304;54.550;18.526;2023-06-04T06:57:43;3.55;;;1.60;;
66487;SDS011;53304;54.550;18.526;2023-06-04T07:00:10;3.90;;;1.58;;
66487;SDS011;53304;54.550;18.526;2023-06-04T07:02:41;6.68;;;2.10;;
66487;SDS011;53304;54.550;18.526;2023-06-04T07:05:13;3.72;;;2.00;;
66487;SDS011;53304;54.550;18.526;2023-06-04T07:07:40;4.05;;;1.77;;
66487;SDS011;53304;54.550;18.526;2023-06-04T07:10:06;3.88;;;1.75;;
66487;SDS011;53304;54.550;18.526;2023-06-04T07:12:34;3.45;;;1.92;;
66487;SDS011;53304;54.550;18.526;2023-06-04T07:14:59;4.55;;;1.50;;
66487;SDS011;53304;54.550;18.526;2023-06-04T07:17:25;4.13;;;1.77;;
66487;SDS011;53304;54.550;18.526;2023-06-04T07:19:53;6.65;;;2.13;;
66487;SDS011;53304;54.550;18.526;2023-06-04T07:22:20;3.70;;;1.70;;
66487;SDS011;53304;54.550;18.526;2023-06-04T07:24:46;5.63;;;1.90;;
66487;SDS011;53304;54.550;18.526;2023-06-04T07:27:16;3.67;;;1.67;;
66487;SDS011;53304;54.550;18.526;2023-06-04T07:29:44;4.15;;;1.77;;
66487;SDS011;53304;54.550;18.526;2023-06-04T07:32:10;6.20;;;2.03;;
66487;SDS011;53304;54.550;18.526;2023-06-04T07:34:37;3.78;;;1.77;;
66487;SDS011;53304;54.550;18.526;2023-06-04T07:37:03;3.83;;;1.63;;
66487;SDS011;53304;54.550;18.526;2023-06-04T07:39:31;5.43;;;1.92;;
66487;SDS011;53304;54.550;18.526;2023-06-04T07:41:59;3.40;;;1.77;;
66487;SDS011;53304;54.550;18.526;2023-06-04T07:44:27;6.15;;;1.63;;
66487;SDS011;53304;54.550;18.526;2023-06-04T07:46:52;4.40;;;1.67;;
66487;SDS011;53304;54.550;18.526;2023-06-04T07:49:17;7.22;;;1.88;;
66487;SDS011;53304;54.550;18.526;2023-06-04T07:51:48;3.72;;;1.60;;
66487;SDS011;53304;54.550;18.526;2023-06-04T07:54:16;4.05;;;1.77;;
66487;SDS011;53304;54.550;18.526;2023-06-04T07:56:41;8.40;;;2.00;;
66487;SDS011;53304;54.550;18.526;2023-06-04T07:59:07;4.68;;;1.30;;
66487;SDS011;53304;54.550;18.526;2023-06-04T08:01:32;3.30;;;1.50;;
66487;SDS011;53304;54.550;18.526;2023-06-04T08:03:58;3.30;;;1.23;;
66487;SDS011;53304;54.550;18.526;2023-06-04T08:06:26;4.32;;;1.55;;
66487;SDS011;53304;54.550;18.526;2023-06-04T08:08:51;3.97;;;1.70;;
66487;SDS011;53304;54.550;18.526;2023-06-04T08:11:22;2.92;;;1.20;;
66487;SDS011;53304;54.550;18.526;2023-06-04T08:13:53;3.58;;;1.30;;
66487;SDS011;53304;54.550;18.526;2023-06-04T08:16:20;3.35;;;1.10;;
66487;SDS011;53304;54.550;18.526;2023-06-04T08:18:46;3.78;;;1.35;;
66487;SDS011;53304;54.550;18.526;2023-06-04T08:21:11;2.88;;;1.20;;
66487;SDS011;53304;54.550;18.526;2023-06-04T08:23:42;2.97;;;1.10;;
66487;SDS011;53304;54.550;18.526;2023-06-04T08:26:12;3.00;;;1.20;;
66487;SDS011;53304;54.550;18.526;2023-06-04T08:28:38;2.15;;;1.13;;
66487;SDS011;53304;54.550;18.526;2023-06-04T08:31:08;3.20;;;1.10;;
66487;SDS011;53304;54.550;18.526;2023-06-04T08:33:35;2.28;;;1.10;;
66487;SDS011;53304;54.550;18.526;2023-06-04T08:36:03;1.60;;;0.93;;
66487;SDS011;53304;54.550;18.526;2023-06-04T08:38:29;2.17;;;0.95;;
66487;SDS011;53304;54.550;18.526;2023-06-04T08:41:02;2.28;;;1.20;;
66487;SDS011;53304;54.550;18.526;2023-06-04T08:43:53;1.88;;;1.08;;
66487;SDS011;53304;54.550;18.526;2023-06-04T08:46:25;1.80;;;1.13;;
66487;SDS011;53304;54.550;18.526;2023-06-04T08:48:52;4.10;;;1.13;;
66487;SDS011;53304;54.550;18.526;2023-06-04T08:51:21;1.58;;;0.80;;
66487;SDS011;53304;54.550;18.526;2023-06-04T08:53:52;2.03;;;0.90;;
66487;SDS011;53304;54.550;18.526;2023-06-04T08:56:22;1.60;;;0.90;;
66487;SDS011;53304;54.550;18.526;2023-06-04T08:58:47;3.13;;;1.00;;
66487;SDS011;53304;54.550;18.526;2023-06-04T09:01:13;1.75;;;0.90;;
66487;SDS011;53304;54.550;18.526;2023-06-04T09:03:39;1.75;;;1.00;;
66487;SDS011;53304;54.550;18.526;2023-06-04T09:06:06;2.47;;;0.80;;
66487;SDS011;53304;54.550;18.526;2023-06-04T09:08:31;1.80;;;0.90;;
66487;SDS011;53304;54.550;18.526;2023-06-04T09:11:03;1.85;;;1.00;;
66487;SDS011;53304;54.550;18.526;2023-06-04T09:13:31;2.50;;;0.75;;
66487;SDS011;53304;54.550;18.526;2023-06-04T09:15:58;1.27;;;0.85;;
66487;SDS011;53304;54.550;18.526;2023-06-04T09:18:25;2.05;;;0.90;;
66487;SDS011;53304;54.550;18.526;2023-06-04T09:20:59;3.80;;;0.93;;
66487;SDS011;53304;54.550;18.526;2023-06-04T09:23:27;1.58;;;0.95;;
66487;SDS011;53304;54.550;18.526;2023-06-04T09:25:55;1.50;;;0.88;;
66487;SDS011;53304;54.550;18.526;2023-06-04T09:28:21;3.45;;;0.80;;
66487;SDS011;53304;54.550;18.526;2023-06-04T09:30:52;3.40;;;1.00;;
66487;SDS011;53304;54.550;18.526;2023-06-04T09:33:23;1.80;;;1.15;;
66487;SDS011;53304;54.550;18.526;2023-06-04T09:35:53;3.30;;;1.10;;
66487;SDS011;53304;54.550;18.526;2023-06-04T09:38:21;2.05;;;0.90;;
66487;SDS011;53304;54.550;18.526;2023-06-04T09:40:56;1.63;;;0.88;;
66487;SDS011;53304;54.550;18.526;2023-06-04T09:43:24;2.80;;;1.00;;
66487;SDS011;53304;54.550;18.526;2023-06-04T09:45:50;3.60;;;1.40;;
66487;SDS011;53304;54.550;18.526;2023-06-04T09:48:21;5.20;;;1.20;;
66487;SDS011;53304;54.550;18.526;2023-06-04T09:50:49;5.53;;;1.20;;
66487;SDS011;53304;54.550;18.526;2023-06-04T09:53:20;5.93;;;1.52;;
66487;SDS011;53304;54.550;18.526;2023-06-04T09:55:57;5.30;;;1.33;;
66487;SDS011;53304;54.550;18.526;2023-06-04T09:58:25;9.27;;;1.70;;
66487;SDS011;53304;54.550;18.526;2023-06-04T10:00:51;8.55;;;1.48;;
66487;SDS011;53304;54.550;18.526;2023-06-04T10:03:24;5.85;;;1.60;;
66487;SDS011;53304;54.550;18.526;2023-06-04T10:05:52;5.53;;;1.63;;
66487;SDS011;53304;54.550;18.526;2023-06-04T10:08:18;6.18;;;1.60;;
66487;SDS011;53304;54.550;18.526;2023-06-04T10:10:49;6.07;;;1.50;;
66487;SDS011;53304;54.550;18.526;2023-06-04T10:13:17;5.25;;;1.30;;
66487;SDS011;53304;54.550;18.526;2023-06-04T10:15:46;8.27;;;1.40;;
66487;SDS011;53304;54.550;18.526;2023-06-04T10:18:15;6.50;;;1.52;;
66487;SDS011;53304;54.550;18.526;2023-06-04T10:20:46;5.90;;;1.33;;
66487;SDS011;53304;54.550;18.526;2023-06-04T10:23:14;5.47;;;1.33;;
66487;SDS011;53304;54.550;18.526;2023-06-04T10:25:39;8.30;;;1.67;;
66487;SDS011;53304;54.550;18.526;2023-06-04T10:28:07;3.53;;;1.25;;
66487;SDS011;53304;54.550;18.526;2023-06-04T10:30:38;4.38;;;1.23;;
66487;SDS011;53304;54.550;18.526;2023-06-04T10:33:09;12.23;;;2.00;;
66487;SDS011;53304;54.550;18.526;2023-06-04T10:35:37;10.77;;;1.40;;
66487;SDS011;53304;54.550;18.526;2023-06-04T10:38:10;6.28;;;1.63;;
66487;SDS011;53304;54.550;18.526;2023-06-04T10:40:38;9.45;;;1.23;;
66487;SDS011;53304;54.550;18.526;2023-06-04T10:43:07;5.57;;;1.38;;
66487;SDS011;53304;54.550;18.526;2023-06-04T10:45:36;8.35;;;1.52;;
66487;SDS011;53304;54.550;18.526;2023-06-04T10:48:02;11.68;;;1.60;;
66487;SDS011;53304;54.550;18.526;2023-06-04T10:50:34;10.35;;;1.50;;
66487;SDS011;53304;54.550;18.526;2023-06-04T10:53:00;16.70;;;1.98;;
66487;SDS011;53304;54.550;18.526;2023-06-04T10:55:31;8.43;;;1.83;;
66487;SDS011;53304;54.550;18.526;2023-06-04T10:58:00;8.23;;;1.75;;
66487;SDS011;53304;54.550;18.526;2023-06-04T11:00:45;6.53;;;1.60;;
66487;SDS011;53304;54.550;18.526;2023-06-04T11:03:12;2.85;;;1.20;;
66487;SDS011;53304;54.550;18.526;2023-06-04T11:05:46;4.47;;;0.98;;
66487;SDS011;53304;54.550;18.526;2023-06-04T11:08:13;7.22;;;1.10;;
66487;SDS011;53304;54.550;18.526;2023-06-04T11:10:43;4.13;;;1.10;;
66487;SDS011;53304;54.550;18.526;2023-06-04T11:13:09;3.55;;;1.00;;
66487;SDS011;53304;54.550;18.526;2023-06-04T11:15:44;4.90;;;1.25;;
66487;SDS011;53304;54.550;18.526;2023-06-04T11:18:13;5.70;;;1.10;;
66487;SDS011;53304;54.550;18.526;2023-06-04T11:20:43;5.00;;;1.20;;
66487;SDS011;53304;54.550;18.526;2023-06-04T11:23:11;6.63;;;1.25;;
66487;SDS011;53304;54.550;18.526;2023-06-04T11:25:37;3.53;;;1.27;;
66487;SDS011;53304;54.550;18.526;2023-06-04T11:28:03;2.80;;;1.00;;
66487;SDS011;53304;54.550;18.526;2023-06-04T11:30:28;4.38;;;0.90;;
66487;SDS011;53304;54.550;18.526;2023-06-04T11:33:00;2.08;;;1.02;;
66487;SDS011;53304;54.550;18.526;2023-06-04T11:35:29;3.15;;;0.90;;
66487;SDS011;53304;54.550;18.526;2023-06-04T11:37:58;2.22;;;0.80;;
66487;SDS011;53304;54.550;18.526;2023-06-04T11:40:24;2.67;;;0.82;;
66487;SDS011;53304;54.550;18.526;2023-06-04T11:42:51;3.28;;;1.15;;
66487;SDS011;53304;54.550;18.526;2023-06-04T11:45:20;3.75;;;1.10;;
66487;SDS011;53304;54.550;18.526;2023-06-04T11:50:17;4.00;;;1.00;;
66487;SDS011;53304;54.550;18.526;2023-06-04T11:52:45;3.42;;;1.20;;
66487;SDS011;53304;54.550;18.526;2023-06-04T11:55:13;2.47;;;1.08;;
66487;SDS011;53304;54.550;18.526;2023-06-04T11:57:39;2.80;;;0.93;;
66487;SDS011;53304;54.550;18.526;2023-06-04T12:00:07;1.90;;;0.80;;
66487;SDS011;53304;54.550;18.526;2023-06-04T12:05:15;0.88;;;0.70;;
66487;SDS011;53304;54.550;18.526;2023-06-04T12:07:46;2.60;;;0.80;;
66487;SDS011;53304;54.550;18.526;2023-06-04T12:10:15;3.33;;;0.82;;
66487;SDS011;53304;54.550;18.526;2023-06-04T12:12:45;2.78;;;0.82;;
66487;SDS011;53304;54.550;18.526;2023-06-04T12:15:12;1.98;;;0.95;;
66487;SDS011;53304;54.550;18.526;2023-06-04T12:17:50;2.20;;;0.80;;
66487;SDS011;53304;54.550;18.526;2023-06-04T12:20:16;1.52;;;0.70;;
66487;SDS011;53304;54.550;18.526;2023-06-04T12:22:45;1.58;;;0.82;;
66487;SDS011;53304;54.550;18.526;2023-06-04T12:25:23;1.13;;;0.60;;
66487;SDS011;53304;54.550;18.526;2023-06-04T12:27:51;2.17;;;0.90;;
66487;SDS011;53304;54.550;18.526;2023-06-04T12:30:16;1.60;;;0.80;;
66487;SDS011;53304;54.550;18.526;2023-06-04T12:32:42;3.10;;;0.80;;
66487;SDS011;53304;54.550;18.526;2023-06-04T12:35:10;3.20;;;0.90;;
66487;SDS011;53304;54.550;18.526;2023-06-04T12:37:36;3.28;;;1.05;;
66487;SDS011;53304;54.550;18.526;2023-06-04T12:40:07;2.45;;;0.90;;
66487;SDS011;53304;54.550;18.526;2023-06-04T12:42:33;1.17;;;0.70;;
66487;SDS011;53304;54.550;18.526;2023-06-04T12:45:04;1.15;;;0.70;;
66487;SDS011;53304;54.550;18.526;2023-06-04T12:47:29;1.45;;;0.80;;
66487;SDS011;53304;54.550;18.526;2023-06-04T12:49:57;2.15;;;0.90;;
66487;SDS011;53304;54.550;18.526;2023-06-04T12:52:25;1.67;;;0.82;;
66487;SDS011;53304;54.550;18.526;2023-06-04T12:54:55;1.85;;;0.80;;
66487;SDS011;53304;54.550;18.526;2023-06-04T12:57:24;1.40;;;0.70;;
66487;SDS011;53304;54.550;18.526;2023-06-04T12:59:49;0.63;;;0.60;;
66487;SDS011;53304;54.550;18.526;2023-06-04T13:02:15;0.70;;;0.60;;
66487;SDS011;53304;54.550;18.526;2023-06-04T13:04:42;1.80;;;0.82;;
66487;SDS011;53304;54.550;18.526;2023-06-04T13:07:11;2.22;;;0.98;;
66487;SDS011;53304;54.550;18.526;2023-06-04T13:09:41;1.52;;;0.90;;
66487;SDS011;53304;54.550;18.526;2023-06-04T13:12:09;2.05;;;0.80;;
66487;SDS011;53304;54.550;18.526;2023-06-04T13:14:38;2.28;;;0.77;;
66487;SDS011;53304;54.550;18.526;2023-06-04T13:17:06;1.60;;;0.80;;
66487;SDS011;53304;54.550;18.526;2023-06-04T13:19:35;2.15;;;0.90;;
66487;SDS011;53304;54.550;18.526;2023-06-04T13:22:01;1.13;;;0.60;;
66487;SDS011;53304;54.550;18.526;2023-06-04T13:24:26;1.55;;;0.60;;
66487;SDS011;53304;54.550;18.526;2023-06-04T13:26:54;1.38;;;0.70;;
66487;SDS011;53304;54.550;18.526;2023-06-04T13:29:20;1.67;;;0.88;;
66487;SDS011;53304;54.550;18.526;2023-06-04T13:31:49;1.38;;;0.75;;
66487;SDS011;53304;54.550;18.526;2023-06-04T13:34:19;1.13;;;0.60;;
66487;SDS011;53304;54.550;18.526;2023-06-04T13:36:47;2.38;;;0.82;;
66487;SDS011;53304;54.550;18.526;2023-06-04T13:39:15;1.02;;;0.75;;
66487;SDS011;53304;54.550;18.526;2023-06-04T13:41:40;1.08;;;0.80;;
66487;SDS011;53304;54.550;18.526;2023-06-04T13:44:08;2.75;;;0.93;;
66487;SDS011;53304;54.550;18.526;2023-06-04T13:46:36;2.15;;;0.80;;
66487;SDS011;53304;54.550;18.526;2023-06-04T13:49:01;1.30;;;0.77;;
66487;SDS011;53304;54.550;18.526;2023-06-04T13:51:27;2.63;;;0.93;;
66487;SDS011;53304;54.550;18.526;2023-06-04T13:53:57;1.83;;;0.90;;
66487;SDS011;53304;54.550;18.526;2023-06-04T13:56:27;1.45;;;0.80;;
66487;SDS011;53304;54.550;18.526;2023-06-04T13:58:53;1.20;;;0.60;;
66487;SDS011;53304;54.550;18.526;2023-06-04T14:01:21;1.05;;;0.77;;
66487;SDS011;53304;54.550;18.526;2023-06-04T14:03:49;1.30;;;0.70;;
66487;SDS011;53304;54.550;18.526;2023-06-04T14:06:17;1.42;;;0.77;;
66487;SDS011;53304;54.550;18.526;2023-06-04T14:08:47;4.05;;;1.23;;
66487;SDS011;53304;54.550;18.526;2023-06-04T14:11:12;3.63;;;0.80;;
66487;SDS011;53304;54.550;18.526;2023-06-04T14:13:40;2.30;;;0.80;;
66487;SDS011;53304;54.550;18.526;2023-06-04T14:16:10;2.53;;;0.80;;
66487;SDS011;53304;54.550;18.526;2023-06-04T14:18:40;2.70;;;0.60;;
66487;SDS011;53304;54.550;18.526;2023-06-04T14:21:08;4.30;;;1.00;;
66487;SDS011;53304;54.550;18.526;2023-06-04T14:23:36;4.63;;;1.00;;
66487;SDS011;53304;54.550;18.526;2023-06-04T14:26:04;4.78;;;1.08;;
66487;SDS011;53304;54.550;18.526;2023-06-04T14:28:31;3.95;;;0.90;;
66487;SDS011;53304;54.550;18.526;2023-06-04T14:30:57;2.60;;;0.85;;
66487;SDS011;53304;54.550;18.526;2023-06-04T14:33:25;4.40;;;1.25;;
66487;SDS011;53304;54.550;18.526;2023-06-04T14:35:53;1.90;;;0.80;;
66487;SDS011;53304;54.550;18.526;2023-06-04T14:38:21;1.17;;;0.70;;
66487;SDS011;53304;54.550;18.526;2023-06-04T14:40:46;2.05;;;0.90;;
66487;SDS011;53304;54.550;18.526;2023-06-04T14:43:12;2.78;;;0.80;;
66487;SDS011;53304;54.550;18.526;2023-06-04T14:45:40;3.05;;;0.88;;
66487;SDS011;53304;54.550;18.526;2023-06-04T14:48:05;3.15;;;0.80;;
66487;SDS011;53304;54.550;18.526;2023-06-04T14:50:36;1.50;;;1.00;;
66487;SDS011;53304;54.550;18.526;2023-06-04T14:53:01;1.48;;;0.70;;